Time;durP1;ratioP1;P1;durP2;ratioP2;P2;SDS_P1;SDS_P2;PMS_P1;PMS_P2;Temp;Humidity;BMP_temperature;BMP_pressure;BME280_temperature;BME280_humidity;BME280_pressure;Samples;Min_cycle;Max_cycle;Signal;HPM_P1;HPM_P2
2023/06/29 00:02:24;;;;;;;2.33;1.70;;;;;;;;;;5032412;28;20513;-80
2023/06/29 00:04:53;;;;;;;2.50;1.57;;;;;;;;;;5032194;28;20455;-80
2023/06/29 00:07:21;;;;;;;2.67;2.20;;;;;;;;;;5032144;28;20485;-80
2023/06/29 00:09:48;;;;;;;2.57;2.33;;;;;;;;;;5032279;28;20450;-80
2023/06/29 00:12:15;;;;;;;2.40;1.80;;;;;;;;;;5032314;28;21062;-80
2023/06/29 00:14:44;;;;;;;2.57;1.83;;;;;;;;;;5030771;28;20521;-80
2023/06/29 00:17:14;;;;;;;2.47;1.70;;;;;;;;;;5031947;28;20481;-80
2023/06/29 00:19:42;;;;;;;3.00;2.30;;;;;;;;;;5031802;28;20446;-80
2023/06/29 00:22:10;;;;;;;2.80;1.93;;;;;;;;;;5032310;28;20525;-80
2023/06/29 00:24:42;;;;;;;2.93;1.83;;;;;;;;;;5032102;28;20490;-80
2023/06/29 00:27:09;;;;;;;2.80;1.77;;;;;;;;;;5031643;28;20504;-80
2023/06/29 00:29:37;;;;;;;2.90;1.90;;;;;;;;;;5031942;28;20442;-80
2023/06/29 00:32:06;;;;;;;2.33;1.70;;;;;;;;;;5031544;28;20541;-81
2023/06/29 00:34:33;;;;;;;2.13;1.63;;;;;;;;;;5032088;28;20889;-81
2023/06/29 00:37:00;;;;;;;2.10;1.50;;;;;;;;;;5031473;28;20446;-80
2023/06/29 00:39:28;;;;;;;2.40;1.80;;;;;;;;;;5031830;28;20478;-80
2023/06/29 00:41:55;;;;;;;2.20;1.67;;;;;;;;;;5031946;28;20466;-80
2023/06/29 00:44:22;;;;;;;2.47;1.60;;;;;;;;;;5031842;28;20448;-80
2023/06/29 00:46:51;;;;;;;3.90;2.47;;;;;;;;;;5031559;28;20478;-80
2023/06/29 00:49:20;;;;;;;2.50;1.73;;;;;;;;;;5031881;28;20442;-80
2023/06/29 00:51:49;;;;;;;2.87;1.70;;;;;;;;;;5031553;28;20547;-80
2023/06/29 00:54:16;;;;;;;3.07;2.10;;;;;;;;;;5031614;28;20509;-80
2023/06/29 00:56:44;;;;;;;3.10;1.77;;;;;;;;;;5031602;28;20876;-80
2023/06/29 00:59:11;;;;;;;2.73;1.90;;;;;;;;;;5031529;28;21016;-80
2023/06/29 01:01:39;;;;;;;2.60;1.80;;;;;;;;;;5031406;28;20489;-80
2023/06/29 01:04:06;;;;;;;3.10;2.10;;;;;;;;;;5031845;28;20518;-80
2023/06/29 01:06:40;;;;;;;7.27;2.03;;;;;;;;;;5031210;28;20882;-80
2023/06/29 01:09:08;;;;;;;2.70;1.73;;;;;;;;;;5031653;28;20497;-80
2023/06/29 01:11:36;;;;;;;2.60;1.67;;;;;;;;;;5031498;28;20434;-80
2023/06/29 01:14:05;;;;;;;2.73;1.70;;;;;;;;;;5030709;28;20545;-80
2023/06/29 01:16:33;;;;;;;2.70;1.80;;;;;;;;;;5031095;28;20482;-80
2023/06/29 01:19:00;;;;;;;3.77;2.00;;;;;;;;;;5031499;28;20443;-80
2023/06/29 01:21:29;;;;;;;2.30;1.70;;;;;;;;;;5031255;28;20434;-80
2023/06/29 01:23:59;;;;;;;2.20;1.80;;;;;;;;;;5043172;28;20446;-80
2023/06/29 01:26:28;;;;;;;2.50;1.70;;;;;;;;;;5033262;28;20521;-80
2023/06/29 01:28:56;;;;;;;3.80;2.20;;;;;;;;;;5035248;28;20953;-80
2023/06/29 01:31:26;;;;;;;2.50;1.73;;;;;;;;;;5035535;28;20534;-80
2023/06/29 01:33:54;;;;;;;2.70;1.83;;;;;;;;;;5036963;28;20508;-80
2023/06/29 01:36:22;;;;;;;3.33;2.00;;;;;;;;;;5036605;28;20491;-80
2023/06/29 01:38:53;;;;;;;3.47;2.13;;;;;;;;;;5035770;28;20477;-80
2023/06/29 01:41:21;;;;;;;3.30;1.70;;;;;;;;;;5035184;28;20969;-81
2023/06/29 01:43:50;;;;;;;3.20;2.20;;;;;;;;;;5035356;28;20533;-80
2023/06/29 01:46:18;;;;;;;3.23;1.97;;;;;;;;;;5035171;28;20478;-80
2023/06/29 01:48:45;;;;;;;2.93;1.90;;;;;;;;;;5035726;28;20537;-80
2023/06/29 01:51:12;;;;;;;2.73;1.83;;;;;;;;;;5035554;28;20537;-80
2023/06/29 01:53:40;;;;;;;2.90;1.80;;;;;;;;;;5035358;28;20516;-80
2023/06/29 01:56:07;;;;;;;3.10;2.50;;;;;;;;;;5034574;28;20570;-80
2023/06/29 01:58:34;;;;;;;3.47;1.90;;;;;;;;;;5035360;28;20529;-80
2023/06/29 02:01:03;;;;;;;3.50;2.00;;;;;;;;;;5035477;28;20537;-80
2023/06/29 02:03:30;;;;;;;3.33;1.90;;;;;;;;;;5035417;28;20557;-80
2023/06/29 02:05:57;;;;;;;2.93;1.90;;;;;;;;;;5034630;28;20458;-81
2023/06/29 02:08:25;;;;;;;3.20;2.20;;;;;;;;;;5035271;28;20449;-81
2023/06/29 02:10:52;;;;;;;2.40;1.63;;;;;;;;;;5034763;28;20880;-81
2023/06/29 02:13:19;;;;;;;2.73;2.00;;;;;;;;;;5034552;28;20983;-80
2023/06/29 02:15:46;;;;;;;2.90;1.90;;;;;;;;;;5033681;28;20536;-80
2023/06/29 02:18:15;;;;;;;2.53;1.97;;;;;;;;;;5034246;28;20526;-80
2023/06/29 02:20:42;;;;;;;3.70;2.90;;;;;;;;;;5034598;28;20494;-80
2023/06/29 02:23:09;;;;;;;2.40;1.90;;;;;;;;;;5034710;28;20566;-80
2023/06/29 02:25:37;;;;;;;2.60;2.00;;;;;;;;;;5033917;28;20446;-80
2023/06/29 02:28:04;;;;;;;2.67;2.07;;;;;;;;;;5034865;28;20446;-80
2023/06/29 02:30:31;;;;;;;2.77;1.80;;;;;;;;;;5034788;28;20526;-80
2023/06/29 02:32:59;;;;;;;3.50;2.30;;;;;;;;;;5034412;28;20466;-80
2023/06/29 02:35:27;;;;;;;2.50;1.90;;;;;;;;;;5034116;28;20565;-80
2023/06/29 02:37:54;;;;;;;3.47;1.93;;;;;;;;;;5033423;28;20478;-80
2023/06/29 02:40:22;;;;;;;3.73;1.90;;;;;;;;;;5033870;28;20458;-80
2023/06/29 02:42:49;;;;;;;3.30;2.93;;;;;;;;;;5034095;28;20494;-80
2023/06/29 02:45:16;;;;;;;3.17;2.23;;;;;;;;;;5034143;28;20542;-80
2023/06/29 02:47:43;;;;;;;4.80;1.90;;;;;;;;;;5033806;28;20454;-80
2023/06/29 02:50:11;;;;;;;2.60;1.80;;;;;;;;;;5034318;28;20500;-80
2023/06/29 02:52:40;;;;;;;2.70;2.03;;;;;;;;;;5033923;28;20501;-80
2023/06/29 02:55:07;;;;;;;2.70;1.90;;;;;;;;;;5033617;28;20478;-80
2023/06/29 02:57:34;;;;;;;4.80;2.40;;;;;;;;;;5033699;28;20502;-80
2023/06/29 03:00:03;;;;;;;3.10;1.97;;;;;;;;;;5033991;28;20513;-80
2023/06/29 03:02:30;;;;;;;2.87;1.63;;;;;;;;;;5033584;28;20477;-80
2023/06/29 03:04:57;;;;;;;3.30;2.07;;;;;;;;;;5033326;28;20458;-81
2023/06/29 03:07:24;;;;;;;4.60;1.97;;;;;;;;;;5033497;28;20979;-80
2023/06/29 03:09:53;;;;;;;2.80;1.87;;;;;;;;;;5033424;28;20481;-80
2023/06/29 03:12:22;;;;;;;2.83;1.90;;;;;;;;;;5033380;28;20556;-80
2023/06/29 03:14:49;;;;;;;2.60;2.20;;;;;;;;;;5032778;28;20570;-80
2023/06/29 03:17:17;;;;;;;3.00;2.00;;;;;;;;;;5033299;28;20442;-80
2023/06/29 03:19:45;;;;;;;2.70;2.10;;;;;;;;;;5033513;28;20450;-80
2023/06/29 03:22:12;;;;;;;2.83;1.93;;;;;;;;;;5033112;28;20475;-80
2023/06/29 03:24:40;;;;;;;3.33;2.83;;;;;;;;;;5032603;28;20457;-80
2023/06/29 03:27:08;;;;;;;2.90;1.97;;;;;;;;;;5032915;28;20525;-80
2023/06/29 03:29:36;;;;;;;3.70;2.03;;;;;;;;;;5033307;28;20476;-80
2023/06/29 03:32:03;;;;;;;3.40;2.10;;;;;;;;;;5032676;28;20471;-80
2023/06/29 03:34:30;;;;;;;3.43;2.10;;;;;;;;;;5032884;28;20521;-80
2023/06/29 03:36:57;;;;;;;2.70;2.20;;;;;;;;;;5032473;28;20500;-80
2023/06/29 03:39:25;;;;;;;2.70;1.73;;;;;;;;;;5032651;28;20873;-80
2023/06/29 03:41:52;;;;;;;2.87;2.07;;;;;;;;;;5032560;28;20560;-80
2023/06/29 03:44:20;;;;;;;5.80;2.20;;;;;;;;;;5032916;28;20520;-80
2023/06/29 03:46:48;;;;;;;3.47;1.97;;;;;;;;;;5032764;28;20481;-80
2023/06/29 03:49:15;;;;;;;3.50;2.13;;;;;;;;;;5032660;28;20533;-80
2023/06/29 03:51:42;;;;;;;3.63;2.33;;;;;;;;;;5032659;28;20562;-80
2023/06/29 03:54:10;;;;;;;2.80;2.20;;;;;;;;;;5032109;28;20529;-80
2023/06/29 03:56:37;;;;;;;3.70;1.87;;;;;;;;;;5032162;28;20891;-80
2023/06/29 03:59:04;;;;;;;2.80;1.53;;;;;;;;;;5032445;28;20477;-80
2023/06/29 04:01:33;;;;;;;3.70;1.80;;;;;;;;;;5032444;28;20474;-80
2023/06/29 04:04:00;;;;;;;2.83;1.80;;;;;;;;;;5032356;28;20473;-80
2023/06/29 04:06:27;;;;;;;3.50;1.90;;;;;;;;;;5032036;28;20477;-80
2023/06/29 04:08:54;;;;;;;2.20;1.50;;;;;;;;;;5032163;28;20508;-80
2023/06/29 04:11:22;;;;;;;2.80;1.60;;;;;;;;;;5032398;28;20532;-80
2023/06/29 04:13:49;;;;;;;3.07;1.87;;;;;;;;;;5032339;28;20534;-80
2023/06/29 04:16:16;;;;;;;2.90;2.00;;;;;;;;;;5031396;28;20553;-80
2023/06/29 04:18:45;;;;;;;3.40;1.70;;;;;;;;;;5031570;28;20447;-80
2023/06/29 04:21:12;;;;;;;3.43;1.90;;;;;;;;;;5031859;28;20461;-80
2023/06/29 04:23:39;;;;;;;3.40;2.50;;;;;;;;;;5031955;28;20474;-80
2023/06/29 04:26:07;;;;;;;3.33;2.07;;;;;;;;;;5031796;28;20817;-80
2023/06/29 04:28:36;;;;;;;2.80;1.90;;;;;;;;;;5032111;28;20457;-79
2023/06/29 04:31:03;;;;;;;3.40;2.20;;;;;;;;;;5031949;28;20761;-80
2023/06/29 04:33:30;;;;;;;2.80;1.97;;;;;;;;;;5031830;28;20567;-80
2023/06/29 04:35:59;;;;;;;3.07;2.03;;;;;;;;;;5031387;28;20513;-81
2023/06/29 04:38:27;;;;;;;3.07;2.00;;;;;;;;;;5031918;28;20952;-80
2023/06/29 04:41:03;;;;;;;2.83;2.33;;;;;;;;;;5031273;28;20485;-80
2023/06/29 04:43:30;;;;;;;2.07;1.53;;;;;;;;;;5032140;28;20472;-80
2023/06/29 04:45:57;;;;;;;2.70;1.80;;;;;;;;;;5031039;28;20525;-80
2023/06/29 04:48:32;;;;;;;2.50;1.87;;;;;;;;;;5032193;28;20456;-80
2023/06/29 04:51:04;;;;;;;2.47;1.73;;;;;;;;;;5034182;28;20469;-80
2023/06/29 04:53:32;;;;;;;4.17;2.57;;;;;;;;;;5037560;28;21071;-80
2023/06/29 04:55:59;;;;;;;2.53;1.70;;;;;;;;;;5040642;28;20474;-80
2023/06/29 04:58:26;;;;;;;2.90;2.30;;;;;;;;;;5031426;28;20442;-80
2023/06/29 05:00:55;;;;;;;3.40;2.30;;;;;;;;;;5031369;28;20488;-80
2023/06/29 05:03:22;;;;;;;3.37;2.57;;;;;;;;;;5031693;28;20471;-80
2023/06/29 05:05:49;;;;;;;3.00;1.90;;;;;;;;;;5031266;28;20512;-80
2023/06/29 05:08:18;;;;;;;3.67;1.83;;;;;;;;;;5031646;28;20528;-80
2023/06/29 05:10:45;;;;;;;3.00;1.80;;;;;;;;;;5031220;28;20532;-80
2023/06/29 05:13:12;;;;;;;2.90;1.90;;;;;;;;;;5031201;28;21077;-80
2023/06/29 05:15:40;;;;;;;3.77;1.80;;;;;;;;;;5030564;28;20908;-83
2023/06/29 05:18:07;;;;;;;4.13;2.40;;;;;;;;;;5031045;28;20471;-85
2023/06/29 05:20:34;;;;;;;3.60;2.20;;;;;;;;;;5036216;28;20504;-84
2023/06/29 05:23:01;;;;;;;2.37;1.50;;;;;;;;;;5033352;28;20521;-82
2023/06/29 05:25:30;;;;;;;3.43;2.10;;;;;;;;;;5031030;28;20521;-81
2023/06/29 05:27:58;;;;;;;2.77;1.50;;;;;;;;;;5031256;28;20453;-80
2023/06/29 05:30:25;;;;;;;2.50;2.00;;;;;;;;;;5031279;28;20439;-84
2023/06/29 05:32:52;;;;;;;2.97;1.90;;;;;;;;;;5031340;28;20552;-82
2023/06/29 05:35:20;;;;;;;3.60;1.67;;;;;;;;;;5031378;28;20470;-83
2023/06/29 05:37:47;;;;;;;5.73;2.07;;;;;;;;;;5031158;28;20438;-80
2023/06/29 05:40:15;;;;;;;3.57;2.20;;;;;;;;;;5030517;28;20545;-81
2023/06/29 05:42:43;;;;;;;2.60;2.37;;;;;;;;;;5031183;28;20462;-81
2023/06/29 05:45:11;;;;;;;6.13;2.33;;;;;;;;;;5031230;28;20571;-81
2023/06/29 05:47:38;;;;;;;3.10;2.33;;;;;;;;;;5030913;28;20446;-82
2023/06/29 05:50:06;;;;;;;2.70;2.00;;;;;;;;;;5031149;28;20482;-81
2023/06/29 05:52:34;;;;;;;4.53;2.07;;;;;;;;;;5031190;28;20473;-81
2023/06/29 05:55:02;;;;;;;4.60;2.53;;;;;;;;;;5031463;28;20451;-83
2023/06/29 05:57:29;;;;;;;2.60;1.90;;;;;;;;;;5030995;28;20446;-84
2023/06/29 05:59:57;;;;;;;2.30;1.73;;;;;;;;;;5030910;28;20533;-83
2023/06/29 06:02:25;;;;;;;3.87;2.00;;;;;;;;;;5030060;28;20491;-83
2023/06/29 06:04:52;;;;;;;2.70;1.97;;;;;;;;;;5030894;28;20948;-84
2023/06/29 06:07:28;;;;;;;4.40;2.07;;;;;;;;;;5032586;28;20470;-84
2023/06/29 06:09:55;;;;;;;6.17;1.90;;;;;;;;;;5034616;28;20446;-84
2023/06/29 06:12:23;;;;;;;3.03;1.60;;;;;;;;;;5034299;28;20465;-84
2023/06/29 06:14:50;;;;;;;3.23;1.60;;;;;;;;;;5036955;28;20447;-84
2023/06/29 06:17:19;;;;;;;2.87;1.73;;;;;;;;;;5032762;28;20563;-84
2023/06/29 06:19:46;;;;;;;3.07;1.67;;;;;;;;;;5033436;28;20533;-84
2023/06/29 06:22:13;;;;;;;3.33;1.70;;;;;;;;;;5033516;28;20470;-84
2023/06/29 06:24:40;;;;;;;5.97;1.70;;;;;;;;;;5033662;28;20512;-84
2023/06/29 06:27:08;;;;;;;3.60;1.83;;;;;;;;;;5033881;28;21120;-84
2023/06/29 06:29:35;;;;;;;4.33;1.53;;;;;;;;;;5034529;28;20454;-84
2023/06/29 06:32:02;;;;;;;3.90;1.80;;;;;;;;;;5033345;28;20466;-84
2023/06/29 06:34:32;;;;;;;2.50;1.80;;;;;;;;;;5034395;28;20443;-83
2023/06/29 06:36:59;;;;;;;2.97;1.60;;;;;;;;;;5034495;28;20485;-84
2023/06/29 06:39:27;;;;;;;2.20;1.37;;;;;;;;;;5034578;28;20820;-84
2023/06/29 06:41:54;;;;;;;4.40;1.83;;;;;;;;;;5034909;28;20470;-83
2023/06/29 06:44:22;;;;;;;3.40;1.80;;;;;;;;;;5034678;28;20446;-84
2023/06/29 06:46:49;;;;;;;3.20;1.80;;;;;;;;;;5034691;28;20529;-84
2023/06/29 06:49:16;;;;;;;3.80;2.13;;;;;;;;;;5034885;28;20876;-83
2023/06/29 06:51:45;;;;;;;4.07;2.07;;;;;;;;;;5034291;28;20486;-83
2023/06/29 06:54:12;;;;;;;2.60;1.70;;;;;;;;;;5033928;28;20483;-84
2023/06/29 06:56:40;;;;;;;3.17;1.93;;;;;;;;;;5033925;28;20992;-83
2023/06/29 06:59:07;;;;;;;4.33;2.17;;;;;;;;;;5034312;28;20477;-83
2023/06/29 07:01:35;;;;;;;3.93;2.30;;;;;;;;;;5036080;28;20813;-83
2023/06/29 07:04:03;;;;;;;4.00;2.03;;;;;;;;;;5037361;28;20446;-85
2023/06/29 07:06:31;;;;;;;3.20;2.00;;;;;;;;;;5038400;28;20442;-84
2023/06/29 07:09:00;;;;;;;2.33;1.67;;;;;;;;;;5036132;28;20446;-83
2023/06/29 07:11:28;;;;;;;3.17;1.80;;;;;;;;;;5034612;28;20526;-83
2023/06/29 07:13:55;;;;;;;4.60;2.17;;;;;;;;;;5034928;28;20463;-84
2023/06/29 07:16:24;;;;;;;3.07;1.67;;;;;;;;;;5033919;28;21004;-84
2023/06/29 07:19:04;;;;;;;3.00;1.63;;;;;;;;;;5034905;28;20526;-83
2023/06/29 07:21:31;;;;;;;3.57;2.10;;;;;;;;;;5033696;28;20892;-83
2023/06/29 07:23:59;;;;;;;5.90;2.20;;;;;;;;;;5032826;28;20527;-82
2023/06/29 07:26:27;;;;;;;3.60;2.37;;;;;;;;;;5034007;28;20461;-84
2023/06/29 07:28:54;;;;;;;2.30;1.50;;;;;;;;;;5034688;28;20446;-83
2023/06/29 07:31:25;;;;;;;4.77;2.10;;;;;;;;;;5033336;28;20439;-81
2023/06/29 07:33:53;;;;;;;3.90;2.20;;;;;;;;;;5033632;28;20447;-82
2023/06/29 07:36:20;;;;;;;2.57;1.90;;;;;;;;;;5034356;28;20482;-82
2023/06/29 07:38:48;;;;;;;4.90;1.83;;;;;;;;;;5034555;28;20885;-83
2023/06/29 07:41:15;;;;;;;3.30;2.00;;;;;;;;;;5034010;28;20504;-83
2023/06/29 07:43:47;;;;;;;2.53;1.80;;;;;;;;;;5034499;28;20493;-82
2023/06/29 07:46:15;;;;;;;4.30;2.00;;;;;;;;;;5034415;28;21003;-83
2023/06/29 07:48:43;;;;;;;4.07;2.27;;;;;;;;;;5033458;28;20522;-82
2023/06/29 07:51:10;;;;;;;6.00;2.70;;;;;;;;;;5034241;28;20442;-83
2023/06/29 07:53:37;;;;;;;4.10;2.00;;;;;;;;;;5033778;28;20477;-82
2023/06/29 07:56:05;;;;;;;5.90;2.20;;;;;;;;;;5033799;28;20561;-83
2023/06/29 07:58:32;;;;;;;2.67;1.93;;;;;;;;;;5035611;28;20431;-83
2023/06/29 08:01:01;;;;;;;5.60;2.87;;;;;;;;;;5035292;28;20496;-83
2023/06/29 08:03:28;;;;;;;2.97;2.07;;;;;;;;;;5034379;28;20470;-83
2023/06/29 08:05:56;;;;;;;8.20;2.40;;;;;;;;;;5033868;28;20455;-83
2023/06/29 08:08:23;;;;;;;3.87;2.40;;;;;;;;;;5033910;28;20450;-83
2023/06/29 08:10:50;;;;;;;2.83;2.20;;;;;;;;;;5033264;28;20482;-82
2023/06/29 08:13:17;;;;;;;2.67;2.07;;;;;;;;;;5032764;28;20502;-82
2023/06/29 08:15:45;;;;;;;4.10;1.70;;;;;;;;;;5034591;28;20924;-82
2023/06/29 08:18:13;;;;;;;3.43;2.57;;;;;;;;;;5038899;28;20486;-83
2023/06/29 08:20:41;;;;;;;4.50;1.90;;;;;;;;;;5038182;28;20485;-83
2023/06/29 08:23:08;;;;;;;3.70;2.03;;;;;;;;;;5034963;28;20554;-83
2023/06/29 08:25:36;;;;;;;5.40;2.00;;;;;;;;;;5034114;28;20488;-83
2023/06/29 08:28:03;;;;;;;3.50;1.57;;;;;;;;;;5034419;28;20449;-83
2023/06/29 08:30:30;;;;;;;3.47;2.10;;;;;;;;;;5037757;28;20470;-82
2023/06/29 08:32:57;;;;;;;4.90;2.00;;;;;;;;;;5038785;28;20516;-83
2023/06/29 08:35:26;;;;;;;4.50;2.77;;;;;;;;;;5031079;28;20496;-82
2023/06/29 08:37:53;;;;;;;3.57;1.90;;;;;;;;;;5032061;28;20474;-82
2023/06/29 08:40:21;;;;;;;3.67;1.60;;;;;;;;;;5031362;28;20918;-82
2023/06/29 08:42:48;;;;;;;3.17;2.23;;;;;;;;;;5031692;28;20498;-82
2023/06/29 08:45:16;;;;;;;2.53;1.70;;;;;;;;;;5031591;28;20485;-82
2023/06/29 08:47:44;;;;;;;3.40;2.10;;;;;;;;;;5031671;28;20470;-82
2023/06/29 08:50:12;;;;;;;3.00;1.90;;;;;;;;;;5032121;28;20537;-82
2023/06/29 08:52:41;;;;;;;3.03;1.70;;;;;;;;;;5046277;28;20470;-80
2023/06/29 08:55:09;;;;;;;4.17;2.70;;;;;;;;;;5039606;28;20453;-80
2023/06/29 08:57:37;;;;;;;3.57;2.10;;;;;;;;;;5038664;28;20474;-80
2023/06/29 09:00:05;;;;;;;3.63;1.77;;;;;;;;;;5038409;28;20451;-79
2023/06/29 09:02:34;;;;;;;3.50;1.93;;;;;;;;;;5038078;28;20840;-79
2023/06/29 09:05:01;;;;;;;4.73;2.57;;;;;;;;;;5039209;28;20580;-80
2023/06/29 09:07:28;;;;;;;3.00;1.80;;;;;;;;;;5036674;28;20435;-79
2023/06/29 09:09:57;;;;;;;6.47;2.43;;;;;;;;;;5036152;28;20748;-80
2023/06/29 09:12:24;;;;;;;2.80;1.90;;;;;;;;;;5034395;28;20501;-79
2023/06/29 09:14:51;;;;;;;3.83;2.50;;;;;;;;;;5033891;28;20482;-81
2023/06/29 09:17:21;;;;;;;3.00;2.47;;;;;;;;;;5033799;28;20517;-82
2023/06/29 09:19:54;;;;;;;6.03;2.20;;;;;;;;;;5032058;28;20446;-82
2023/06/29 09:22:22;;;;;;;10.37;2.70;;;;;;;;;;5032120;28;20466;-84
2023/06/29 09:24:50;;;;;;;19.60;16.23;;;;;;;;;;5031966;28;20454;-86
2023/06/29 09:27:18;;;;;;;12.80;11.40;;;;;;;;;;5031205;28;20453;-82
2023/06/29 09:29:52;;;;;;;6.13;3.70;;;;;;;;;;5031479;28;20542;-81
2023/06/29 09:32:19;;;;;;;4.90;2.83;;;;;;;;;;5032513;28;20500;-83
2023/06/29 09:34:47;;;;;;;5.00;2.60;;;;;;;;;;5034596;28;20434;-84
2023/06/29 09:37:15;;;;;;;6.87;3.30;;;;;;;;;;5032862;28;20478;-83
2023/06/29 09:39:50;;;;;;;4.93;2.07;;;;;;;;;;5032340;28;20457;-83
2023/06/29 09:42:20;;;;;;;8.00;2.97;;;;;;;;;;5032990;28;20524;-83
2023/06/29 09:44:48;;;;;;;8.20;3.03;;;;;;;;;;5033305;28;20451;-83
2023/06/29 09:47:15;;;;;;;3.93;2.60;;;;;;;;;;5035014;28;20438;-83
2023/06/29 09:49:47;;;;;;;4.10;2.07;;;;;;;;;;5037405;28;20539;-83
2023/06/29 09:52:15;;;;;;;4.90;1.83;;;;;;;;;;5037240;28;20474;-83
2023/06/29 09:54:42;;;;;;;3.73;1.77;;;;;;;;;;5037848;28;20466;-84
2023/06/29 09:57:11;;;;;;;3.67;2.23;;;;;;;;;;5036545;28;20566;-83
2023/06/29 09:59:40;;;;;;;4.00;2.10;;;;;;;;;;5036507;28;20446;-83
2023/06/29 10:02:08;;;;;;;3.80;2.30;;;;;;;;;;5034991;28;20489;-83
2023/06/29 10:04:35;;;;;;;6.07;2.10;;;;;;;;;;5034693;28;20840;-83
2023/06/29 10:07:07;;;;;;;4.20;2.17;;;;;;;;;;5035422;28;20525;-82
2023/06/29 10:09:37;;;;;;;3.33;2.53;;;;;;;;;;5033559;28;20452;-82
2023/06/29 10:12:04;;;;;;;2.50;1.60;;;;;;;;;;5033841;28;20462;-82
2023/06/29 10:14:33;;;;;;;3.20;2.27;;;;;;;;;;5033004;28;20534;-82
2023/06/29 10:17:03;;;;;;;3.53;2.00;;;;;;;;;;5033249;28;20518;-82
2023/06/29 10:19:31;;;;;;;3.17;1.97;;;;;;;;;;5032906;28;20457;-83
2023/06/29 10:22:00;;;;;;;3.20;1.67;;;;;;;;;;5033196;28;20557;-82
2023/06/29 10:24:31;;;;;;;3.00;1.60;;;;;;;;;;5034464;28;20549;-81
2023/06/29 10:26:59;;;;;;;5.70;2.30;;;;;;;;;;5034403;28;20435;-80
2023/06/29 10:29:26;;;;;;;8.07;2.60;;;;;;;;;;5033683;28;20518;-80
2023/06/29 10:31:57;;;;;;;4.03;2.70;;;;;;;;;;5041977;28;20573;-79
2023/06/29 10:34:27;;;;;;;3.60;2.00;;;;;;;;;;5041697;28;20445;-79
2023/06/29 10:36:59;;;;;;;6.83;2.63;;;;;;;;;;5039487;28;20506;-80
2023/06/29 10:39:43;;;;;;;2.70;2.03;;;;;;;;;;5043742;28;20892;-81
2023/06/29 10:42:12;;;;;;;4.10;2.30;;;;;;;;;;5042911;28;20971;-82
2023/06/29 10:44:40;;;;;;;6.00;2.17;;;;;;;;;;5042555;28;20448;-81
2023/06/29 10:47:08;;;;;;;3.40;2.23;;;;;;;;;;5039310;28;20441;-81
2023/06/29 10:49:36;;;;;;;3.67;2.47;;;;;;;;;;5034061;28;20968;-80
2023/06/29 10:52:04;;;;;;;4.00;2.23;;;;;;;;;;5033472;28;20471;-81
2023/06/29 10:54:32;;;;;;;2.60;1.80;;;;;;;;;;5033780;28;20843;-81
2023/06/29 10:57:00;;;;;;;3.60;2.03;;;;;;;;;;5033467;28;20568;-81
2023/06/29 10:59:27;;;;;;;5.00;2.57;;;;;;;;;;5033044;28;20446;-81
2023/06/29 11:01:55;;;;;;;4.87;2.20;;;;;;;;;;5034667;28;21096;-80
2023/06/29 11:04:23;;;;;;;9.27;3.30;;;;;;;;;;5049278;23;20547;-54
2023/06/29 11:06:52;;;;;;;2.97;2.10;;;;;;;;;;4991474;28;20474;-52
2023/06/29 11:09:19;;;;;;;3.03;2.27;;;;;;;;;;4991307;28;21010;-53
2023/06/29 11:11:48;;;;;;;2.83;2.20;;;;;;;;;;4991285;28;20451;-51
2023/06/29 11:14:15;;;;;;;7.77;2.70;;;;;;;;;;4991326;28;20460;-52
2023/06/29 11:16:42;;;;;;;3.70;2.30;;;;;;;;;;4992213;28;20468;-52
2023/06/29 11:19:11;;;;;;;5.57;2.67;;;;;;;;;;4992390;28;20814;-52
2023/06/29 11:21:38;;;;;;;3.23;2.30;;;;;;;;;;4993622;28;20502;-53
2023/06/29 11:24:06;;;;;;;3.77;2.40;;;;;;;;;;4993322;28;20444;-52
2023/06/29 11:26:34;;;;;;;4.00;2.00;;;;;;;;;;4993235;28;20544;-53
2023/06/29 11:29:01;;;;;;;4.27;2.87;;;;;;;;;;4993614;28;20440;-52
2023/06/29 11:31:28;;;;;;;3.57;2.00;;;;;;;;;;4993550;28;20750;-52
2023/06/29 11:33:56;;;;;;;4.97;3.43;;;;;;;;;;4993442;28;20939;-51
2023/06/29 11:36:28;;;;;;;4.03;2.43;;;;;;;;;;4992738;28;20451;-53
2023/06/29 11:39:07;;;;;;;4.00;2.83;;;;;;;;;;4993008;28;20479;-52
2023/06/29 11:41:35;;;;;;;3.97;2.73;;;;;;;;;;4992935;28;20538;-53
2023/06/29 11:44:02;;;;;;;13.83;3.80;;;;;;;;;;4992964;28;20495;-51
2023/06/29 11:46:33;;;;;;;4.23;2.47;;;;;;;;;;4992799;28;20518;-51
2023/06/29 11:49:01;;;;;;;5.63;2.90;;;;;;;;;;4993136;28;20806;-51
2023/06/29 11:51:29;;;;;;;9.70;3.10;;;;;;;;;;4992842;28;20448;-52
2023/06/29 11:53:56;;;;;;;12.93;3.47;;;;;;;;;;4992557;28;20450;-50
2023/06/29 11:56:29;;;;;;;8.13;3.37;;;;;;;;;;4992710;28;20543;-51
2023/06/29 11:58:56;;;;;;;5.10;3.07;;;;;;;;;;4992816;28;20484;-51
2023/06/29 12:01:24;;;;;;;6.60;3.10;;;;;;;;;;4992855;28;20552;-53
2023/06/29 12:03:51;;;;;;;6.53;5.93;;;;;;;;;;4992351;28;20479;-50
2023/06/29 12:06:18;;;;;;;4.90;3.93;;;;;;;;;;4992039;28;20480;-51
2023/06/29 12:08:46;;;;;;;6.63;3.03;;;;;;;;;;4992847;28;20445;-50
2023/06/29 12:11:17;;;;;;;3.20;2.47;;;;;;;;;;4992710;28;20440;-51
2023/06/29 12:13:49;;;;;;;5.90;4.30;;;;;;;;;;4992320;28;21164;-51
2023/06/29 12:16:17;;;;;;;4.70;3.40;;;;;;;;;;4992101;28;20496;-52
2023/06/29 12:18:45;;;;;;;4.43;3.33;;;;;;;;;;4991654;28;21026;-52
2023/06/29 12:21:12;;;;;;;4.17;3.17;;;;;;;;;;4992356;28;20488;-51
2023/06/29 12:23:39;;;;;;;4.10;3.20;;;;;;;;;;4992508;28;20449;-51
2023/06/29 12:26:07;;;;;;;5.00;3.50;;;;;;;;;;4991965;28;20502;-52
2023/06/29 12:28:34;;;;;;;3.50;3.20;;;;;;;;;;4992228;28;21030;-50
2023/06/29 12:31:04;;;;;;;4.33;3.00;;;;;;;;;;4992215;28;20483;-51
2023/06/29 12:33:31;;;;;;;8.80;6.17;;;;;;;;;;4992801;28;20444;-52
2023/06/29 12:35:59;;;;;;;6.60;4.40;;;;;;;;;;4992019;28;20499;-51
2023/06/29 12:38:26;;;;;;;9.63;4.67;;;;;;;;;;4992389;28;20551;-51
2023/06/29 12:40:53;;;;;;;90.17;81.47;;;;;;;;;;4992138;28;20536;-54
2023/06/29 12:43:21;;;;;;;29.70;25.13;;;;;;;;;;4992130;28;20483;-52
2023/06/29 12:45:48;;;;;;;25.90;23.20;;;;;;;;;;4991741;28;20566;-52
2023/06/29 12:48:16;;;;;;;8.43;6.13;;;;;;;;;;4992073;28;21014;-51
2023/06/29 12:50:45;;;;;;;10.50;6.40;;;;;;;;;;4991816;28;20941;-52
2023/06/29 12:53:12;;;;;;;7.40;5.87;;;;;;;;;;4991991;28;21043;-53
2023/06/29 12:55:39;;;;;;;5.00;4.10;;;;;;;;;;4991386;28;20500;-52
2023/06/29 12:58:07;;;;;;;12.57;4.53;;;;;;;;;;4991628;28;20490;-52
2023/06/29 13:00:34;;;;;;;15.30;7.20;;;;;;;;;;4991753;28;20823;-51
2023/06/29 13:03:07;;;;;;;17.43;6.07;;;;;;;;;;4991992;28;20490;-51
2023/06/29 13:05:35;;;;;;;8.63;5.53;;;;;;;;;;4991345;28;20476;-51
2023/06/29 13:08:02;;;;;;;11.93;6.30;;;;;;;;;;4991745;28;20917;-51
2023/06/29 13:10:30;;;;;;;73.87;12.80;;;;;;;;;;4991558;28;20525;-51
2023/06/29 13:12:59;;;;;;;134.77;18.23;;;;;;;;;;4991662;28;20844;-52
2023/06/29 13:15:26;;;;;;;5.27;4.53;;;;;;;;;;4990770;28;20484;-51
2023/06/29 13:17:53;;;;;;;6.13;4.70;;;;;;;;;;4991242;28;20900;-51
2023/06/29 13:20:21;;;;;;;6.90;5.40;;;;;;;;;;4991161;28;20486;-51
2023/06/29 13:22:49;;;;;;;7.90;6.63;;;;;;;;;;4994502;28;20534;-52
2023/06/29 13:25:17;;;;;;;7.13;4.83;;;;;;;;;;4995439;28;20511;-55
2023/06/29 13:27:44;;;;;;;8.87;6.47;;;;;;;;;;4995573;28;20530;-53
2023/06/29 13:30:14;;;;;;;8.20;6.23;;;;;;;;;;4995839;28;20502;-51
2023/06/29 13:32:41;;;;;;;6.97;4.90;;;;;;;;;;4995497;28;20451;-51
2023/06/29 13:35:09;;;;;;;6.30;5.07;;;;;;;;;;4995252;28;20502;-51
2023/06/29 13:37:36;;;;;;;8.53;6.17;;;;;;;;;;4995256;28;20535;-53
2023/06/29 13:40:05;;;;;;;8.23;6.20;;;;;;;;;;4995563;28;20547;-52
2023/06/29 13:42:33;;;;;;;6.93;5.60;;;;;;;;;;4995179;28;20535;-52
2023/06/29 13:45:00;;;;;;;8.80;6.73;;;;;;;;;;4995047;28;20468;-51
2023/06/29 13:47:27;;;;;;;8.87;5.90;;;;;;;;;;4995075;28;20527;-51
2023/06/29 13:49:54;;;;;;;8.73;5.60;;;;;;;;;;4994981;28;20450;-51
2023/06/29 13:52:22;;;;;;;21.60;8.10;;;;;;;;;;4995174;28;20498;-51
2023/06/29 13:54:49;;;;;;;8.37;6.30;;;;;;;;;;4994964;28;20932;-51
2023/06/29 13:57:17;;;;;;;11.60;6.30;;;;;;;;;;4994535;28;20531;-51
2023/06/29 13:59:46;;;;;;;8.27;5.87;;;;;;;;;;4995395;28;21043;-51
2023/06/29 14:02:14;;;;;;;7.60;6.00;;;;;;;;;;4994807;28;20443;-51
2023/06/29 14:04:41;;;;;;;6.80;5.20;;;;;;;;;;4994502;28;20534;-52
2023/06/29 14:07:09;;;;;;;9.33;5.83;;;;;;;;;;4994620;28;20483;-51
2023/06/29 14:09:36;;;;;;;7.63;5.53;;;;;;;;;;4994805;28;21026;-52
2023/06/29 14:12:04;;;;;;;7.17;5.40;;;;;;;;;;4994930;28;20454;-51
2023/06/29 14:14:34;;;;;;;8.23;5.70;;;;;;;;;;4993778;28;20464;-51
2023/06/29 14:17:01;;;;;;;6.40;5.60;;;;;;;;;;4994621;28;20491;-51
2023/06/29 14:19:28;;;;;;;6.23;5.63;;;;;;;;;;4994232;28;20550;-53
2023/06/29 14:21:55;;;;;;;7.73;6.03;;;;;;;;;;4994674;28;20534;-51
2023/06/29 14:24:23;;;;;;;6.47;5.23;;;;;;;;;;4994677;28;20495;-52
2023/06/29 14:26:52;;;;;;;12.70;6.77;;;;;;;;;;4994087;28;20476;-51
2023/06/29 14:29:19;;;;;;;6.53;4.77;;;;;;;;;;4994501;28;20444;-51
2023/06/29 14:31:48;;;;;;;7.30;5.93;;;;;;;;;;4994728;28;20543;-51
2023/06/29 14:34:15;;;;;;;7.80;5.70;;;;;;;;;;4993256;28;20464;-55
2023/06/29 14:36:42;;;;;;;8.87;5.50;;;;;;;;;;4993977;28;20867;-51
2023/06/29 14:39:10;;;;;;;10.57;6.03;;;;;;;;;;4994184;28;20471;-51
2023/06/29 14:41:37;;;;;;;7.80;5.50;;;;;;;;;;4994549;28;20502;-51
2023/06/29 14:44:04;;;;;;;10.10;7.47;;;;;;;;;;4994164;28;20448;-51
2023/06/29 14:46:32;;;;;;;7.17;5.50;;;;;;;;;;4993749;28;21004;-51
2023/06/29 14:49:00;;;;;;;7.00;6.30;;;;;;;;;;4994134;28;20925;-51